Time;durP1;ratioP1;P1;durP2;ratioP2;P2;SDS_P1;SDS_P2;PMS_P1;PMS_P2;Temp;Humidity;BMP_temperature;BMP_pressure;BME280_temperature;BME280_humidity;BME280_pressure;Samples;Min_cycle;Max_cycle;Signal;HPM_P1;HPM_P2
2023/09/08 00:00:47;;;;;;;;;;;;;;;;;;5072352;28;19929;-70
2023/09/08 00:03:14;;;;;;;;;;;;;;;;;;5059323;28;19986;-70
2023/09/08 00:05:41;;;;;;;;;;;;;;;;;;5063523;28;19952;-70
2023/09/08 00:08:08;;;;;;;;;;;;;;;;;;5073280;28;19975;-69
2023/09/08 00:10:35;;;;;;;;;;;;;;;;;;5074052;28;19925;-69
2023/09/08 00:13:02;;;;;;;;;;;;;;;;;;5074460;28;20436;-69
2023/09/08 00:15:29;;;;;;;;;;;;;;;;;;5074381;28;19970;-69
2023/09/08 00:17:56;;;;;;;;;;;;;;;;;;5074149;28;19991;-70
2023/09/08 00:20:24;;;;;;;;;;;;;;;;;;5090277;28;19931;-70
2023/09/08 00:22:51;;;;;;;;;;;;;;;;;;5074713;28;19929;-70
2023/09/08 00:25:18;;;;;;;;;;;;;;;;;;5072830;28;19925;-70
2023/09/08 00:27:45;;;;;;;;;;;;;;;;;;5072881;28;19971;-69
2023/09/08 00:30:12;;;;;;;;;;;;;;;;;;5074408;28;19924;-69
2023/09/08 00:32:39;;;;;;;;;;;;;;;;;;5080015;28;19924;-69
2023/09/08 00:35:06;;;;;;;;;;;;;;;;;;5076934;28;19925;-69
2023/09/08 00:37:33;;;;;;;;;;;;;;;;;;5072705;28;20313;-69
2023/09/08 00:40:00;;;;;;;;;;;;;;;;;;5078518;28;19924;-69
2023/09/08 00:42:27;;;;;;;;;;;;;;;;;;5072041;28;19947;-69
2023/09/08 00:44:54;;;;;;;;;;;;;;;;;;5054221;28;19987;-69
2023/09/08 00:47:21;;;;;;;;;;;;;;;;;;5070132;28;19969;-70
2023/09/08 00:49:49;;;;;;;;;;;;;;;;;;5074019;28;19925;-69
2023/09/08 00:52:16;;;;;;;;;;;;;;;;;;5074291;28;19924;-69
2023/09/08 00:54:43;;;;;;;;;;;;;;;;;;5070736;28;19929;-69
2023/09/08 00:57:10;;;;;;;;;;;;;;;;;;5068706;28;19970;-70
2023/09/08 00:59:37;;;;;;;;;;;;;;;;;;5071112;28;19928;-70
2023/09/08 01:02:04;;;;;;;;;;;;;;;;;;5076325;28;19924;-69
2023/09/08 01:04:33;;;;;;;;;;;;;;;;;;5076496;28;19950;-69
2023/09/08 01:07:00;;;;;;;;;;;;;;;;;;5068643;28;19924;-69
2023/09/08 01:09:27;;;;;;;;;;;;;;;;;;5070315;28;20380;-70
2023/09/08 01:11:55;;;;;;;;;;;;;;;;;;5069763;28;20031;-70
2023/09/08 01:14:22;;;;;;;;;;;;;;;;;;5061711;28;19946;-69
2023/09/08 01:16:49;;;;;;;;;;;;;;;;;;5069086;28;19978;-69
2023/09/08 01:19:16;;;;;;;;;;;;;;;;;;5066736;28;20012;-69
2023/09/08 01:21:43;;;;;;;;;;;;;;;;;;5072513;28;20376;-69
2023/09/08 01:24:10;;;;;;;;;;;;;;;;;;5072384;28;20032;-69
2023/09/08 01:26:37;;;;;;;;;;;;;;;;;;5075246;28;19969;-70
2023/09/08 01:29:04;;;;;;;;;;;;;;;;;;5071295;28;20009;-68
2023/09/08 01:31:32;;;;;;;;;;;;;;;;;;5073113;28;19928;-68
2023/09/08 01:33:59;;;;;;;;;;;;;;;;;;5073286;28;19982;-68
2023/09/08 01:36:26;;;;;;;;;;;;;;;;;;5087720;28;20276;-68
2023/09/08 01:38:53;;;;;;;;;;;;;;;;;;5076896;28;20371;-68
2023/09/08 01:41:20;;;;;;;;;;;;;;;;;;5084110;28;19969;-69
2023/09/08 01:43:47;;;;;;;;;;;;;;;;;;5092776;28;19981;-69
2023/09/08 01:46:14;;;;;;;;;;;;;;;;;;5082638;28;19924;-68
2023/09/08 01:48:41;;;;;;;;;;;;;;;;;;5074136;28;19932;-68
2023/09/08 01:51:08;;;;;;;;;;;;;;;;;;5071275;28;20003;-68
2023/09/08 01:53:35;;;;;;;;;;;;;;;;;;5089986;28;19985;-70
2023/09/08 01:56:02;;;;;;;;;;;;;;;;;;5080737;28;19924;-68
2023/09/08 01:58:30;;;;;;;;;;;;;;;;;;5080613;28;19977;-68
2023/09/08 02:01:01;;;;;;;;;;;;;;;;;;5071670;28;19928;-68
2023/09/08 02:03:28;;;;;;;;;;;;;;;;;;5072770;28;19925;-68
2023/09/08 02:05:55;;;;;;;;;;;;;;;;;;5071440;28;19989;-68
2023/09/08 02:08:22;;;;;;;;;;;;;;;;;;5054940;28;20443;-69
2023/09/08 02:10:49;;;;;;;;;;;;;;;;;;5074556;28;19924;-68
2023/09/08 02:13:16;;;;;;;;;;;;;;;;;;5066677;28;20002;-68
2023/09/08 02:15:43;;;;;;;;;;;;;;;;;;5070472;28;20017;-68
2023/09/08 02:18:11;;;;;;;;;;;;;;;;;;5060761;28;19925;-68
2023/09/08 02:20:38;;;;;;;;;;;;;;;;;;5072624;28;19931;-69
2023/09/08 02:23:05;;;;;;;;;;;;;;;;;;5068773;28;19925;-69
2023/09/08 02:25:32;;;;;;;;;;;;;;;;;;5068601;28;19981;-68
2023/09/08 02:27:59;;;;;;;;;;;;;;;;;;5070498;28;19972;-69
2023/09/08 02:30:26;;;;;;;;;;;;;;;;;;5070435;28;19932;-68
2023/09/08 02:32:54;;;;;;;;;;;;;;;;;;5072417;28;19973;-68
2023/09/08 02:35:21;;;;;;;;;;;;;;;;;;5071060;28;19982;-69
2023/09/08 02:37:48;;;;;;;;;;;;;;;;;;5070782;28;19924;-68
2023/09/08 02:40:15;;;;;;;;;;;;;;;;;;5070079;28;19932;-68
2023/09/08 02:42:42;;;;;;;;;;;;;;;;;;5068869;28;19994;-68
2023/09/08 02:45:09;;;;;;;;;;;;;;;;;;5069898;28;19964;-68
2023/09/08 02:47:37;;;;;;;;;;;;;;;;;;5071876;28;19924;-69
2023/09/08 02:50:04;;;;;;;;;;;;;;;;;;5069604;28;19924;-69
2023/09/08 02:52:31;;;;;;;;;;;;;;;;;;5070817;28;20503;-68
2023/09/08 02:54:58;;;;;;;;;;;;;;;;;;5068926;28;19969;-68
2023/09/08 02:57:25;;;;;;;;;;;;;;;;;;5069370;28;19948;-69
2023/09/08 02:59:52;;;;;;;;;;;;;;;;;;5067110;28;19932;-69
2023/09/08 03:02:20;;;;;;;;;;;;;;;;;;5070633;28;19928;-68
2023/09/08 03:04:47;;;;;;;;;;;;;;;;;;5071848;28;19932;-69
2023/09/08 03:07:14;;;;;;;;;;;;;;;;;;5070444;28;19970;-68
2023/09/08 03:09:41;;;;;;;;;;;;;;;;;;5067139;28;20509;-69
2023/09/08 03:12:08;;;;;;;;;;;;;;;;;;5057862;28;19979;-69
2023/09/08 03:14:35;;;;;;;;;;;;;;;;;;5071407;28;20376;-69
2023/09/08 03:17:02;;;;;;;;;;;;;;;;;;5066867;28;19933;-69
2023/09/08 03:19:29;;;;;;;;;;;;;;;;;;5066136;28;19960;-69
2023/09/08 03:21:56;;;;;;;;;;;;;;;;;;5066463;28;19925;-68
2023/09/08 03:24:23;;;;;;;;;;;;;;;;;;5064302;28;19929;-69
2023/09/08 03:26:50;;;;;;;;;;;;;;;;;;5085540;28;19924;-69
2023/09/08 03:29:17;;;;;;;;;;;;;;;;;;5072779;28;20013;-69
2023/09/08 03:31:44;;;;;;;;;;;;;;;;;;5069354;28;19928;-70
2023/09/08 03:34:11;;;;;;;;;;;;;;;;;;5071154;28;19924;-70
2023/09/08 03:36:38;;;;;;;;;;;;;;;;;;5082261;28;20051;-70
2023/09/08 03:39:05;;;;;;;;;;;;;;;;;;5073378;28;19931;-69
2023/09/08 03:41:32;;;;;;;;;;;;;;;;;;5075153;28;19967;-69
2023/09/08 03:43:59;;;;;;;;;;;;;;;;;;5069214;28;19925;-70
2023/09/08 03:46:26;;;;;;;;;;;;;;;;;;5069109;28;20019;-70
2023/09/08 03:48:58;;;;;;;;;;;;;;;;;;5069261;28;19929;-70
2023/09/08 03:51:25;;;;;;;;;;;;;;;;;;5064762;28;20371;-70
2023/09/08 03:53:52;;;;;;;;;;;;;;;;;;5062964;28;19976;-70
2023/09/08 03:56:20;;;;;;;;;;;;;;;;;;5072586;28;20330;-70
2023/09/08 03:58:47;;;;;;;;;;;;;;;;;;5063095;28;20362;-69
2023/09/08 04:01:14;;;;;;;;;;;;;;;;;;5071620;28;19925;-70
2023/09/08 04:03:41;;;;;;;;;;;;;;;;;;5065328;28;19924;-70
2023/09/08 04:06:09;;;;;;;;;;;;;;;;;;5071034;28;19950;-70
2023/09/08 04:08:36;;;;;;;;;;;;;;;;;;5055407;28;19924;-70
2023/09/08 04:11:03;;;;;;;;;;;;;;;;;;5070700;28;19936;-69
2023/09/08 04:13:30;;;;;;;;;;;;;;;;;;5074554;28;19925;-68
2023/09/08 04:15:57;;;;;;;;;;;;;;;;;;5075469;28;20442;-69
2023/09/08 04:18:24;;;;;;;;;;;;;;;;;;5074643;28;19933;-69
2023/09/08 04:20:51;;;;;;;;;;;;;;;;;;5074157;28;19971;-70
2023/09/08 04:23:18;;;;;;;;;;;;;;;;;;5074906;28;19924;-70
2023/09/08 04:25:45;;;;;;;;;;;;;;;;;;5073995;28;19925;-69
2023/09/08 04:28:12;;;;;;;;;;;;;;;;;;5086307;28;20550;-70
2023/09/08 04:30:39;;;;;;;;;;;;;;;;;;5072143;28;19929;-69
2023/09/08 04:33:06;;;;;;;;;;;;;;;;;;5069789;28;19980;-69
2023/09/08 04:35:33;;;;;;;;;;;;;;;;;;5073124;28;19967;-69
2023/09/08 04:37:59;;;;;;;;;;;;;;;;;;5081628;28;19978;-69
2023/09/08 04:40:26;;;;;;;;;;;;;;;;;;5071738;28;19925;-70
2023/09/08 04:42:53;;;;;;;;;;;;;;;;;;5076434;28;19978;-69
2023/09/08 04:45:20;;;;;;;;;;;;;;;;;;5070057;28;19986;-69
2023/09/08 04:47:47;;;;;;;;;;;;;;;;;;5071564;28;19940;-69
2023/09/08 04:50:14;;;;;;;;;;;;;;;;;;5071602;28;19986;-69
2023/09/08 04:52:42;;;;;;;;;;;;;;;;;;5080723;22;19928;-69
2023/09/08 04:55:09;;;;;;;;;;;;;;;;;;5090433;28;19924;-69
2023/09/08 04:57:36;;;;;;;;;;;;;;;;;;5091473;28;20233;-69
2023/09/08 05:00:03;;;;;;;;;;;;;;;;;;5091421;28;20375;-70
2023/09/08 05:02:30;;;;;;;;;;;;;;;;;;5091425;28;19924;-70
2023/09/08 05:04:57;;;;;;;;;;;;;;;;;;5088613;28;19963;-70
2023/09/08 05:07:24;;;;;;;;;;;;;;;;;;5091697;28;19924;-69
2023/09/08 05:09:51;;;;;;;;;;;;;;;;;;5093386;28;19928;-73
2023/09/08 05:12:18;;;;;;;;;;;;;;;;;;5091617;28;19944;-69
2023/09/08 05:14:45;;;;;;;;;;;;;;;;;;5092593;28;20092;-70
2023/09/08 05:17:12;;;;;;;;;;;;;;;;;;5091965;28;19924;-70
2023/09/08 05:19:39;;;;;;;;;;;;;;;;;;5093397;28;19978;-70
2023/09/08 05:22:06;;;;;;;;;;;;;;;;;;5093482;28;19935;-71
2023/09/08 05:24:33;;;;;;;;;;;;;;;;;;5086710;28;20363;-70
2023/09/08 05:27:00;;;;;;;;;;;;;;;;;;5087673;28;19924;-69
2023/09/08 05:29:27;;;;;;;;;;;;;;;;;;5090177;28;19928;-71
2023/09/08 05:31:54;;;;;;;;;;;;;;;;;;5092989;28;19924;-69
2023/09/08 05:34:21;;;;;;;;;;;;;;;;;;5092139;28;20368;-70
2023/09/08 05:36:48;;;;;;;;;;;;;;;;;;5092662;28;20379;-69
2023/09/08 05:39:16;;;;;;;;;;;;;;;;;;5086692;28;19924;-69
2023/09/08 05:41:43;;;;;;;;;;;;;;;;;;5089892;28;19970;-69
2023/09/08 05:44:10;;;;;;;;;;;;;;;;;;5092897;28;20446;-69
2023/09/08 05:46:37;;;;;;;;;;;;;;;;;;5093988;28;19977;-69
2023/09/08 05:49:04;;;;;;;;;;;;;;;;;;5092420;28;19924;-70
2023/09/08 05:51:31;;;;;;;;;;;;;;;;;;5093010;28;19954;-69
2023/09/08 05:53:58;;;;;;;;;;;;;;;;;;5090691;28;19924;-69
2023/09/08 05:56:25;;;;;;;;;;;;;;;;;;5088891;28;19924;-69
2023/09/08 05:58:52;;;;;;;;;;;;;;;;;;5089319;28;19977;-69
2023/09/08 06:01:19;;;;;;;;;;;;;;;;;;5088617;28;20355;-69
2023/09/08 06:03:46;;;;;;;;;;;;;;;;;;5092033;28;19932;-69
2023/09/08 06:06:13;;;;;;;;;;;;;;;;;;5091340;28;19927;-68
2023/09/08 06:08:40;;;;;;;;;;;;;;;;;;5087287;28;20024;-67
2023/09/08 06:11:07;;;;;;;;;;;;;;;;;;5083949;28;19963;-68
2023/09/08 06:13:34;;;;;;;;;;;;;;;;;;5086453;28;20286;-68
2023/09/08 06:16:01;;;;;;;;;;;;;;;;;;5089416;28;19978;-68
2023/09/08 06:18:28;;;;;;;;;;;;;;;;;;5085538;28;19932;-68
2023/09/08 06:20:55;;;;;;;;;;;;;;;;;;5089779;28;20435;-71
2023/09/08 06:23:22;;;;;;;;;;;;;;;;;;5088597;28;19935;-70
2023/09/08 06:25:49;;;;;;;;;;;;;;;;;;5089899;28;19924;-68
2023/09/08 06:28:16;;;;;;;;;;;;;;;;;;5090585;28;19981;-69
2023/09/08 06:30:43;;;;;;;;;;;;;;;;;;5086337;28;19924;-68
2023/09/08 06:33:10;;;;;;;;;;;;;;;;;;5084242;28;19928;-68
2023/09/08 06:35:37;;;;;;;;;;;;;;;;;;5087822;28;20004;-68
2023/09/08 06:38:04;;;;;;;;;;;;;;;;;;5089399;28;19924;-69
2023/09/08 06:40:31;;;;;;;;;;;;;;;;;;5087337;28;19924;-70
2023/09/08 06:42:58;;;;;;;;;;;;;;;;;;5090725;28;19924;-68
2023/09/08 06:45:25;;;;;;;;;;;;;;;;;;5087948;28;20353;-68
2023/09/08 06:47:54;;;;;;;;;;;;;;;;;;5082274;28;20010;-69
2023/09/08 06:50:21;;;;;;;;;;;;;;;;;;5089072;28;19924;-68
2023/09/08 06:52:48;;;;;;;;;;;;;;;;;;5088994;28;20024;-70
2023/09/08 06:55:16;;;;;;;;;;;;;;;;;;5084642;28;19932;-68
2023/09/08 06:57:43;;;;;;;;;;;;;;;;;;5089269;28;19924;-69
2023/09/08 07:00:11;;;;;;;;;;;;;;;;;;5087752;28;19950;-69
2023/09/08 07:02:38;;;;;;;;;;;;;;;;;;5084122;28;19968;-69
2023/09/08 07:05:07;;;;;;;;;;;;;;;;;;5088810;28;20039;-70
2023/09/08 07:07:34;;;;;;;;;;;;;;;;;;5088376;28;19924;-69
2023/09/08 07:10:01;;;;;;;;;;;;;;;;;;5084278;28;19928;-69
2023/09/08 07:12:29;;;;;;;;;;;;;;;;;;5082311;28;19924;-68
2023/09/08 07:14:56;;;;;;;;;;;;;;;;;;5090235;28;20270;-67
2023/09/08 07:17:23;;;;;;;;;;;;;;;;;;5089711;28;19924;-68
2023/09/08 07:19:50;;;;;;;;;;;;;;;;;;5087687;28;19928;-72
2023/09/08 07:22:17;;;;;;;;;;;;;;;;;;5081188;28;20421;-72
2023/09/08 07:24:44;;;;;;;;;;;;;;;;;;5090929;28;19932;-71
2023/09/08 07:27:13;;;;;;;;;;;;;;;;;;5084520;28;20303;-70
2023/09/08 07:29:40;;;;;;;;;;;;;;;;;;5088143;28;19936;-70
2023/09/08 07:32:07;;;;;;;;;;;;;;;;;;5093650;28;19970;-71
2023/09/08 07:34:34;;;;;;;;;;;;;;;;;;5095058;28;20011;-72
2023/09/08 07:37:01;;;;;;;;;;;;;;;;;;5093123;28;20337;-72
2023/09/08 07:39:30;;;;;;;;;;;;;;;;;;5090148;28;19924;-72
2023/09/08 07:41:57;;;;;;;;;;;;;;;;;;5091676;28;20011;-71
2023/09/08 07:44:24;;;;;;;;;;;;;;;;;;5090695;28;19970;-71
2023/09/08 07:46:51;;;;;;;;;;;;;;;;;;5091958;28;19969;-71
2023/09/08 07:49:19;;;;;;;;;;;;;;;;;;5092855;28;20056;-72
2023/09/08 07:51:46;;;;;;;;;;;;;;;;;;5092838;28;19938;-72
2023/09/08 07:54:13;;;;;;;;;;;;;;;;;;5089194;28;19960;-72
2023/09/08 07:56:41;;;;;;;;;;;;;;;;;;5092839;28;19924;-72
2023/09/08 07:59:08;;;;;;;;;;;;;;;;;;5092064;28;19966;-71
2023/09/08 08:01:37;;;;;;;;;;;;;;;;;;5090995;28;20326;-72
2023/09/08 08:04:04;;;;;;;;;;;;;;;;;;5091029;28;19955;-72
2023/09/08 08:06:31;;;;;;;;;;;;;;;;;;5093541;28;20390;-69
2023/09/08 08:08:58;;;;;;;;;;;;;;;;;;5095089;28;19985;-70
2023/09/08 08:11:26;;;;;;;;;;;;;;;;;;5091039;28;20011;-69
2023/09/08 08:13:53;;;;;;;;;;;;;;;;;;5092972;28;20394;-67
2023/09/08 08:16:21;;;;;;;;;;;;;;;;;;5080185;28;19924;-68
2023/09/08 08:18:48;;;;;;;;;;;;;;;;;;5085332;28;20326;-69
2023/09/08 08:21:15;;;;;;;;;;;;;;;;;;5089342;28;19970;-70
2023/09/08 08:23:42;;;;;;;;;;;;;;;;;;5088651;28;20035;-68
2023/09/08 08:26:09;;;;;;;;;;;;;;;;;;5090897;28;19924;-71
2023/09/08 08:28:36;;;;;;;;;;;;;;;;;;5089323;28;19932;-70
2023/09/08 08:31:03;;;;;;;;;;;;;;;;;;5087095;28;19932;-71
2023/09/08 08:33:30;;;;;;;;;;;;;;;;;;5090370;28;19930;-72
2023/09/08 08:35:57;;;;;;;;;;;;;;;;;;5089597;28;19932;-71
2023/09/08 08:38:24;;;;;;;;;;;;;;;;;;5092864;28;20006;-70
2023/09/08 08:40:51;;;;;;;;;;;;;;;;;;5086353;28;19924;-70
2023/09/08 08:43:19;;;;;;;;;;;;;;;;;;5091809;28;19924;-68
2023/09/08 08:45:46;;;;;;;;;;;;;;;;;;5089761;28;19943;-70
2023/09/08 08:48:13;;;;;;;;;;;;;;;;;;5088899;28;19999;-69
2023/09/08 08:50:40;;;;;;;;;;;;;;;;;;5092152;28;20007;-69
2023/09/08 08:53:07;;;;;;;;;;;;;;;;;;5091055;28;19973;-68
2023/09/08 08:55:34;;;;;;;;;;;;;;;;;;5090182;28;20495;-69
2023/09/08 08:58:01;;;;;;;;;;;;;;;;;;5090360;28;19928;-69
2023/09/08 09:00:28;;;;;;;;;;;;;;;;;;5085595;28;20014;-69
2023/09/08 09:02:56;;;;;;;;;;;;;;;;;;5093316;28;19990;-69
2023/09/08 09:05:23;;;;;;;;;;;;;;;;;;5091854;28;19924;-68
2023/09/08 09:07:50;;;;;;;;;;;;;;;;;;5092639;28;20367;-69
2023/09/08 09:10:17;;;;;;;;;;;;;;;;;;5091432;28;19939;-73
2023/09/08 09:12:44;;;;;;;;;;;;;;;;;;5088616;28;20132;-70
2023/09/08 09:15:12;;;;;;;;;;;;;;;;;;5085086;28;19928;-69
2023/09/08 09:17:39;;;;;;;;;;;;;;;;;;5092500;28;19924;-70
2023/09/08 09:20:08;;;;;;;;;;;;;;;;;;5092460;28;19932;-70
2023/09/08 09:22:36;;;;;;;;;;;;;;;;;;5090631;28;19924;-69
2023/09/08 09:25:07;;;;;;;;;;;;;;;;;;5092796;28;19983;-70
2023/09/08 09:27:35;;;;;;;;;;;;;;;;;;5089949;28;19939;-70
2023/09/08 09:30:03;;;;;;;;;;;;;;;;;;5091738;28;19982;-70
2023/09/08 09:32:31;;;;;;;;;;;;;;;;;;5090978;28;20400;-69
2023/09/08 09:35:00;;;;;;;;;;;;;;;;;;5088656;28;19928;-70
2023/09/08 09:37:29;;;;;;;;;;;;;;;;;;5080375;28;20048;-70
2023/09/08 09:39:56;;;;;;;;;;;;;;;;;;5085631;28;19960;-69
2023/09/08 09:42:23;;;;;;;;;;;;;;;;;;5088899;28;20414;-70
2023/09/08 09:44:51;;;;;;;;;;;;;;;;;;5087901;28;19978;-70
2023/09/08 09:47:18;;;;;;;;;;;;;;;;;;5091298;28;19927;-70
2023/09/08 09:49:45;;;;;;;;;;;;;;;;;;5087758;28;19933;-71
2023/09/08 09:52:12;;;;;;;;;;;;;;;;;;5088898;28;19976;-70
2023/09/08 09:54:40;;;;;;;;;;;;;;;;;;5090208;28;20378;-70
2023/09/08 09:57:07;;;;;;;;;;;;;;;;;;5084109;28;19928;-69
2023/09/08 09:59:34;;;;;;;;;;;;;;;;;;5086369;28;19924;-73
2023/09/08 10:02:02;;;;;;;;;;;;;;;;;;5080612;28;19934;-72
2023/09/08 10:04:29;;;;;;;;;;;;;;;;;;5088346;28;19975;-72
2023/09/08 10:06:57;;;;;;;;;;;;;;;;;;5082339;28;20349;-71
2023/09/08 10:09:24;;;;;;;;;;;;;;;;;;5089984;28;20392;-72
2023/09/08 10:11:51;;;;;;;;;;;;;;;;;;5084557;28;19932;-73
2023/09/08 10:14:18;;;;;;;;;;;;;;;;;;5081375;28;19970;-73
2023/09/08 10:16:45;;;;;;;;;;;;;;;;;;5087494;28;19928;-73
2023/09/08 10:19:14;;;;;;;;;;;;;;;;;;5088736;28;19923;-73
2023/09/08 10:21:41;;;;;;;;;;;;;;;;;;5086095;28;19955;-73
2023/09/08 10:24:11;;;;;;;;;;;;;;;;;;5087435;28;20452;-74
2023/09/08 10:26:38;;;;;;;;;;;;;;;;;;5088902;28;20068;-75
2023/09/08 10:29:06;;;;;;;;;;;;;;;;;;5082586;28;19985;-74
2023/09/08 10:31:33;;;;;;;;;;;;;;;;;;5088317;28;19946;-73
2023/09/08 10:34:00;;;;;;;;;;;;;;;;;;5088321;28;19924;-72
2023/09/08 10:36:27;;;;;;;;;;;;;;;;;;5088520;28;20393;-73
2023/09/08 10:38:56;;;;;;;;;;;;;;;;;;5087081;28;19939;-73
2023/09/08 10:41:23;;;;;;;;;;;;;;;;;;5084181;28;19955;-71
2023/09/08 10:43:50;;;;;;;;;;;;;;;;;;5089440;28;19924;-70
2023/09/08 10:46:17;;;;;;;;;;;;;;;;;;5084521;28;20311;-70
2023/09/08 10:48:44;;;;;;;;;;;;;;;;;;5089471;28;19928;-70
2023/09/08 10:51:11;;;;;;;;;;;;;;;;;;5089144;28;20337;-70
2023/09/08 10:53:38;;;;;;;;;;;;;;;;;;5090702;28;19948;-70
2023/09/08 10:56:05;;;;;;;;;;;;;;;;;;5091728;28;19936;-70
2023/09/08 10:58:33;;;;;;;;;;;;;;;;;;5090974;28;20350;-70
2023/09/08 11:01:01;;;;;;;;;;;;;;;;;;5085661;28;20019;-71
2023/09/08 11:03:28;;;;;;;;;;;;;;;;;;5088174;28;19924;-70
2023/09/08 11:05:55;;;;;;;;;;;;;;;;;;5090328;28;19924;-71
2023/09/08 11:08:22;;;;;;;;;;;;;;;;;;5088559;28;19964;-70
2023/09/08 11:10:50;;;;;;;;;;;;;;;;;;5086902;28;19985;-71
2023/09/08 11:13:18;;;;;;;;;;;;;;;;;;5099909;28;20516;-71
2023/09/08 11:15:45;;;;;;;;;;;;;;;;;;5088914;28;19971;-71
2023/09/08 11:18:12;;;;;;;;;;;;;;;;;;5089766;28;20016;-72
2023/09/08 11:20:38;;;;;;;;;;;;;;;;;;5086612;28;20391;-71
2023/09/08 11:23:05;;;;;;;;;;;;;;;;;;5089705;28;19924;-71
2023/09/08 11:25:33;;;;;;;;;;;;;;;;;;5082701;28;19925;-72
2023/09/08 11:28:00;;;;;;;;;;;;;;;;;;5089737;28;20391;-72
2023/09/08 11:30:27;;;;;;;;;;;;;;;;;;5075336;28;19925;-72
2023/09/08 11:32:55;;;;;;;;;;;;;;;;;;5079249;28;19932;-72
2023/09/08 11:35:21;;;;;;;;;;;;;;;;;;5090882;28;20014;-72
2023/09/08 11:37:51;;;;;;;;;;;;;;;;;;5090669;28;19975;-72
2023/09/08 11:40:19;;;;;;;;;;;;;;;;;;5081442;28;20311;-73
2023/09/08 11:42:47;;;;;;;;;;;;;;;;;;5087987;28;19930;-72
2023/09/08 11:45:14;;;;;;;;;;;;;;;;;;5081734;28;19924;-73
2023/09/08 11:47:41;;;;;;;;;;;;;;;;;;5088598;28;19977;-70
2023/09/08 11:50:08;;;;;;;;;;;;;;;;;;5084975;28;19932;-71
2023/09/08 11:52:35;;;;;;;;;;;;;;;;;;5082334;28;20395;-71
2023/09/08 11:55:02;;;;;;;;;;;;;;;;;;5078422;28;19924;-71
2023/09/08 11:57:29;;;;;;;;;;;;;;;;;;5090054;28;19936;-71
2023/09/08 11:59:56;;;;;;;;;;;;;;;;;;5090450;28;19924;-72
2023/09/08 12:02:23;;;;;;;;;;;;;;;;;;5086855;28;19968;-71
2023/09/08 12:04:50;;;;;;;;;;;;;;;;;;5084110;28;19932;-71
2023/09/08 12:07:19;;;;;;;;;;;;;;;;;;5090371;28;19925;-72
2023/09/08 12:09:46;;;;;;;;;;;;;;;;;;5090059;28;19931;-72
2023/09/08 12:12:13;;;;;;;;;;;;;;;;;;5091255;28;19928;-72
2023/09/08 12:14:39;;;;;;;;;;;;;;;;;;5090149;28;19924;-72
2023/09/08 12:17:07;;;;;;;;;;;;;;;;;;5093654;28;19924;-72
2023/09/08 12:19:36;;;;;;;;;;;;;;;;;;5086683;28;20391;-72
2023/09/08 12:22:04;;;;;;;;;;;;;;;;;;5076980;28;19963;-71
2023/09/08 12:24:32;;;;;;;;;;;;;;;;;;5089817;28;19970;-71
2023/09/08 12:26:59;;;;;;;;;;;;;;;;;;5091724;28;19940;-71
2023/09/08 12:29:28;;;;;;;;;;;;;;;;;;5091322;28;19924;-71
2023/09/08 12:31:55;;;;;;;;;;;;;;;;;;5094481;28;19977;-71
2023/09/08 12:34:22;;;;;;;;;;;;;;;;;;5093185;28;19932;-71
2023/09/08 12:36:49;;;;;;;;;;;;;;;;;;5080961;28;20287;-71
2023/09/08 12:39:16;;;;;;;;;;;;;;;;;;5082978;28;20400;-71
2023/09/08 12:41:43;;;;;;;;;;;;;;;;;;5094761;28;19969;-71
2023/09/08 12:44:10;;;;;;;;;;;;;;;;;;5093887;28;19977;-71
2023/09/08 12:46:37;;;;;;;;;;;;;;;;;;5087888;28;19969;-74
2023/09/08 12:49:04;;;;;;;;;;;;;;;;;;5093165;28;20001;-71
2023/09/08 12:51:31;;;;;;;;;;;;;;;;;;5094164;28;19924;-71
2023/09/08 12:53:58;;;;;;;;;;;;;;;;;;5093713;28;19931;-71
2023/09/08 12:56:25;;;;;;;;;;;;;;;;;;5092990;28;19928;-70
2023/09/08 12:58:55;;;;;;;;;;;;;;;;;;5093822;28;20267;-71
2023/09/08 13:01:22;;;;;;;;;;;;;;;;;;5087157;28;20027;-70
2023/09/08 13:03:49;;;;;;;;;;;;;;;;;;5085061;28;19953;-70
2023/09/08 13:06:16;;;;;;;;;;;;;;;;;;5094584;28;19954;-70
2023/09/08 13:08:44;;;;;;;;;;;;;;;;;;5095166;28;19924;-70
2023/09/08 13:11:11;;;;;;;;;;;;;;;;;;5093883;28;19924;-70
2023/09/08 13:13:38;;;;;;;;;;;;;;;;;;5094529;28;19977;-71
2023/09/08 13:16:06;;;;;;;;;;;;;;;;;;5093770;28;20366;-70
2023/09/08 13:18:37;;;;;;;;;;;;;;;;;;5091928;28;19924;-71
2023/09/08 13:21:04;;;;;;;;;;;;;;;;;;5090146;28;19924;-70
2023/09/08 13:23:31;;;;;;;;;;;;;;;;;;5093845;28;20031;-73
2023/09/08 13:25:58;;;;;;;;;;;;;;;;;;5087194;28;19924;-71
2023/09/08 13:28:25;;;;;;;;;;;;;;;;;;5091645;28;19924;-72
2023/09/08 13:30:52;;;;;;;;;;;;;;;;;;5092413;28;20459;-73
2023/09/08 13:33:19;;;;;;;;;;;;;;;;;;5093830;28;19928;-73
2023/09/08 13:35:46;;;;;;;;;;;;;;;;;;5093160;28;19932;-72
2023/09/08 13:38:13;;;;;;;;;;;;;;;;;;5092962;28;20390;-72
2023/09/08 13:40:41;;;;;;;;;;;;;;;;;;5085529;28;19972;-72
2023/09/08 13:43:08;;;;;;;;;;;;;;;;;;5092548;28;20261;-73
2023/09/08 13:45:36;;;;;;;;;;;;;;;;;;5090344;28;19932;-70
2023/09/08 13:48:06;;;;;;;;;;;;;;;;;;5092583;28;19928;-70
2023/09/08 13:50:33;;;;;;;;;;;;;;;;;;5092080;28;19963;-70
2023/09/08 13:52:59;;;;;;;;;;;;;;;;;;5091307;28;19928;-70
2023/09/08 13:55:27;;;;;;;;;;;;;;;;;;5092384;28;19928;-70
2023/09/08 13:57:54;;;;;;;;;;;;;;;;;;5092049;28;20375;-70
2023/09/08 14:00:21;;;;;;;;;;;;;;;;;;5092287;28;19970;-70
2023/09/08 14:02:48;;;;;;;;;;;;;;;;;;5086195;28;19936;-71
2023/09/08 14:05:15;;;;;;;;;;;;;;;;;;5092539;28;19988;-70
2023/09/08 14:07:42;;;;;;;;;;;;;;;;;;5088588;28;20294;-70
2023/09/08 14:10:09;;;;;;;;;;;;;;;;;;5090338;28;19928;-71
2023/09/08 14:12:36;;;;;;;;;;;;;;;;;;5092082;28;19968;-70
2023/09/08 14:15:03;;;;;;;;;;;;;;;;;;5082908;28;19928;-70
2023/09/08 14:17:30;;;;;;;;;;;;;;;;;;5078120;28;20331;-69
2023/09/08 14:19:57;;;;;;;;;;;;;;;;;;5077717;28;19929;-70
2023/09/08 14:22:26;;;;;;;;;;;;;;;;;;5082650;22;19925;-70
2023/09/08 14:24:53;;;;;;;;;;;;;;;;;;5070071;28;19931;-72
2023/09/08 14:27:20;;;;;;;;;;;;;;;;;;5069354;28;19925;-70
2023/09/08 14:29:47;;;;;;;;;;;;;;;;;;5067209;28;19931;-70
2023/09/08 14:32:14;;;;;;;;;;;;;;;;;;5066460;28;19925;-71
2023/09/08 14:34:41;;;;;;;;;;;;;;;;;;5068263;28;20049;-70
2023/09/08 14:37:08;;;;;;;;;;;;;;;;;;5069723;28;19924;-69
2023/09/08 14:39:35;;;;;;;;;;;;;;;;;;5067039;28;19924;-70
2023/09/08 14:42:02;;;;;;;;;;;;;;;;;;5069608;28;19928;-69
2023/09/08 14:44:29;;;;;;;;;;;;;;;;;;5062110;28;20392;-70
2023/09/08 14:46:56;;;;;;;;;;;;;;;;;;5052215;28;20412;-71
2023/09/08 14:49:23;;;;;;;;;;;;;;;;;;5051099;28;19929;-70
2023/09/08 14:51:51;;;;;;;;;;;;;;;;;;5058811;28;19924;-71
2023/09/08 14:54:18;;;;;;;;;;;;;;;;;;5071381;28;19924;-71
2023/09/08 14:56:45;;;;;;;;;;;;;;;;;;5063566;28;19930;-71
2023/09/08 14:59:12;;;;;;;;;;;;;;;;;;5069028;28;20037;-70
2023/09/08 15:01:40;;;;;;;;;;;;;;;;;;5071193;28;19932;-71
2023/09/08 15:04:07;;;;;;;;;;;;;;;;;;5057175;28;20357;-70
2023/09/08 15:06:34;;;;;;;;;;;;;;;;;;5064655;28;19956;-70
2023/09/08 15:09:01;;;;;;;;;;;;;;;;;;5068413;28;19978;-71
2023/09/08 15:11:28;;;;;;;;;;;;;;;;;;5068044;28;20010;-70
2023/09/08 15:13:55;;;;;;;;;;;;;;;;;;5068039;28;19924;-71
2023/09/08 15:16:22;;;;;;;;;;;;;;;;;;5069302;28;19932;-71
2023/09/08 15:18:50;;;;;;;;;;;;;;;;;;5064509;28;19986;-71
2023/09/08 15:21:18;;;;;;;;;;;;;;;;;;5057872;28;20311;-71
2023/09/08 15:23:45;;;;;;;;;;;;;;;;;;5069301;28;19928;-71
2023/09/08 15:26:13;;;;;;;;;;;;;;;;;;5067747;28;19974;-71
2023/09/08 15:28:40;;;;;;;;;;;;;;;;;;5070629;28;19935;-71
2023/09/08 15:31:07;;;;;;;;;;;;;;;;;;5065577;28;19925;-71
2023/09/08 15:33:34;;;;;;;;;;;;;;;;;;5068698;28;19932;-72
2023/09/08 15:36:01;;;;;;;;;;;;;;;;;;5057734;28;19947;-71
2023/09/08 15:38:28;;;;;;;;;;;;;;;;;;5069965;28;19928;-71
2023/09/08 15:40:55;;;;;;;;;;;;;;;;;;5061851;28;19925;-72
2023/09/08 15:43:22;;;;;;;;;;;;;;;;;;5057533;28;19932;-71
2023/09/08 15:45:49;;;;;;;;;;;;;;;;;;5067044;28;20319;-72
2023/09/08 15:48:16;;;;;;;;;;;;;;;;;;5068803;28;19932;-72
2023/09/08 15:50:43;;;;;;;;;;;;;;;;;;5062312;28;19933;-71
2023/09/08 15:53:10;;;;;;;;;;;;;;;;;;5072513;28;20375;-72
2023/09/08 15:55:37;;;;;;;;;;;;;;;;;;5071923;28;19925;-72
2023/09/08 15:58:04;;;;;;;;;;;;;;;;;;5070086;28;19971;-72
2023/09/08 16:00:32;;;;;;;;;;;;;;;;;;5074621;28;19985;-71
2023/09/08 16:02:59;;;;;;;;;;;;;;;;;;5067945;28;20338;-71
2023/09/08 16:05:26;;;;;;;;;;;;;;;;;;5069889;28;19982;-73
2023/09/08 16:07:53;;;;;;;;;;;;;;;;;;5061950;28;19929;-72
2023/09/08 16:10:21;;;;;;;;;;;;;;;;;;5063162;28;19928;-72
2023/09/08 16:12:48;;;;;;;;;;;;;;;;;;5071869;28;19936;-71
2023/09/08 16:15:15;;;;;;;;;;;;;;;;;;5057787;28;20024;-71
2023/09/08 16:17:42;;;;;;;;;;;;;;;;;;5068856;28;19925;-71
2023/09/08 16:20:09;;;;;;;;;;;;;;;;;;5056025;28;19932;-72
2023/09/08 16:22:37;;;;;;;;;;;;;;;;;;5059708;28;19924;-71
2023/09/08 16:25:04;;;;;;;;;;;;;;;;;;5054287;28;19987;-72
2023/09/08 16:27:31;;;;;;;;;;;;;;;;;;5064976;28;19928;-72
2023/09/08 16:29:58;;;;;;;;;;;;;;;;;;5064247;28;19924;-71
2023/09/08 16:32:25;;;;;;;;;;;;;;;;;;5072874;28;19960;-71
2023/09/08 16:34:52;;;;;;;;;;;;;;;;;;5072811;28;19924;-71
2023/09/08 16:37:19;;;;;;;;;;;;;;;;;;5084705;28;19924;-71
2023/09/08 16:39:46;;;;;;;;;;;;;;;;;;5068471;28;20015;-71
2023/09/08 16:42:13;;;;;;;;;;;;;;;;;;5074972;28;19957;-71
2023/09/08 16:44:43;;;;;;;;;;;;;;;;;;5067268;28;19978;-71